createdAt,value
2022-09-22T00:02:16.236Z,96296.00
2022-09-22T00:07:44.078Z,96288.00
2022-09-22T00:13:11.943Z,96286.00
2022-09-22T00:18:40.400Z,96300.00
2022-09-22T00:24:08.983Z,96289.00
2022-09-22T00:29:36.945Z,96281.00
2022-09-22T00:35:05.501Z,96283.00
2022-09-22T00:40:37.488Z,96271.00
2022-09-22T00:46:09.164Z,96268.00
2022-09-22T00:51:39.662Z,96257.00
2022-09-22T00:57:24.298Z,96259.00
2022-09-22T01:02:57.258Z,96248.00
2022-09-22T01:08:26.221Z,96238.00
2022-09-22T01:13:54.097Z,96249.00
2022-09-22T01:20:05.382Z,96232.00
2022-09-22T01:26:03.442Z,96229.00
2022-09-22T01:32:01.477Z,96216.00
2022-09-22T01:37:38.250Z,96208.00
2022-09-22T01:43:24.022Z,96217.00
2022-09-22T01:48:53.433Z,96210.00
2022-09-22T01:54:36.643Z,96212.00
2022-09-22T02:00:08.236Z,96202.00
2022-09-22T02:06:06.822Z,96213.00
2022-09-22T02:11:35.077Z,96216.00
2022-09-22T02:17:03.399Z,96213.00
2022-09-22T02:22:32.241Z,96207.00
2022-09-22T02:28:00.615Z,96220.00
2022-09-22T02:33:34.842Z,96213.00
2022-09-22T02:39:29.962Z,96220.00
2022-09-22T02:45:22.721Z,96217.00
2022-09-22T02:50:52.781Z,96218.00
2022-09-22T02:56:20.984Z,96215.00
2022-09-22T03:01:49.955Z,96215.00
2022-09-22T03:07:19.245Z,96210.00
2022-09-22T03:13:14.397Z,96210.00
2022-09-22T03:18:35.135Z,96208.00
2022-09-22T03:24:03.342Z,96218.00
2022-09-22T03:29:31.340Z,96215.00
2022-09-22T03:34:59.439Z,96222.00
2022-09-22T03:40:27.687Z,96213.00
2022-09-22T03:45:59.842Z,96208.00
2022-09-22T03:51:27.870Z,96214.00
2022-09-22T03:56:55.699Z,96205.00
2022-09-22T04:02:24.027Z,96203.00
2022-09-22T04:07:52.459Z,96198.00
2022-09-22T04:13:20.730Z,96200.00
2022-09-22T04:18:48.707Z,96197.00
2022-09-22T04:24:17.208Z,96199.00
2022-09-22T04:29:45.196Z,96198.00
2022-09-22T04:35:13.185Z,96200.00
2022-09-22T04:40:40.985Z,96194.00
2022-09-22T04:46:08.974Z,96199.00
2022-09-22T04:51:37.063Z,96205.00
2022-09-22T04:57:05.055Z,96213.00
2022-09-22T05:02:34.622Z,96211.00
2022-09-22T05:08:02.647Z,96232.00
2022-09-22T05:13:30.973Z,96234.00
2022-09-22T05:18:58.796Z,96230.00
2022-09-22T05:24:26.554Z,96234.00
2022-09-22T05:29:54.457Z,96231.00
2022-09-22T05:35:24.855Z,96241.00
2022-09-22T05:40:52.677Z,96244.00
2022-09-22T05:46:20.494Z,96249.00
2022-09-22T05:51:48.750Z,96247.00
2022-09-22T05:57:16.775Z,96253.00
2022-09-22T06:02:45.302Z,96249.00
2022-09-22T06:08:13.331Z,96242.00
2022-09-22T06:13:40.918Z,96248.00
2022-09-22T06:19:09.243Z,96240.00
2022-09-22T06:24:37.127Z,96247.00
2022-09-22T06:30:05.628Z,96245.00
2022-09-22T06:35:39.688Z,96252.00
2022-09-22T06:41:08.257Z,96249.00
2022-09-22T06:46:36.529Z,96243.00
2022-09-22T06:52:04.376Z,96240.00
2022-09-22T06:57:33.160Z,96236.00
2022-09-22T07:03:24.417Z,96235.00
2022-09-22T07:08:52.256Z,96239.00
2022-09-22T07:14:22.302Z,96235.00
2022-09-22T07:19:52.104Z,96240.00
2022-09-22T07:25:20.234Z,96227.00
2022-09-22T07:30:47.909Z,96241.00
2022-09-22T07:36:26.200Z,96244.00
2022-09-22T07:41:54.047Z,96241.00
2022-09-22T07:47:41.976Z,96232.00
2022-09-22T07:53:09.821Z,96239.00
2022-09-22T07:58:37.678Z,96239.00
2022-09-22T08:04:05.931Z,96239.00
2022-09-22T08:09:34.123Z,96240.00
2022-09-22T08:15:01.855Z,96247.00
2022-09-22T08:20:30.089Z,96252.00
2022-09-22T08:26:08.509Z,96253.00
2022-09-22T08:31:37.074Z,96240.00
2022-09-22T08:37:04.991Z,96249.00
2022-09-22T08:42:34.116Z,96246.00
2022-09-22T08:48:29.708Z,96247.00
2022-09-22T08:54:03.032Z,96241.00
2022-09-22T08:59:42.391Z,96236.00
2022-09-22T09:05:55.907Z,96248.00
2022-09-22T09:11:40.920Z,96241.00
2022-09-22T09:17:30.494Z,96236.00
2022-09-22T09:23:00.288Z,96235.00
2022-09-22T09:28:34.291Z,96239.00
2022-09-22T09:34:08.114Z,96230.00
2022-09-22T09:39:39.989Z,96223.00
2022-09-22T09:45:15.220Z,96230.00
2022-09-22T09:50:43.266Z,96230.00
2022-09-22T09:56:29.762Z,96223.00
2022-09-22T10:01:57.792Z,96215.00
2022-09-22T10:07:39.827Z,96212.00
2022-09-22T10:13:07.680Z,96208.00
2022-09-22T10:18:40.600Z,96209.00
2022-09-22T10:24:29.658Z,96197.00
2022-09-22T10:30:21.447Z,96199.00
2022-09-22T10:36:12.350Z,96196.00
2022-09-22T10:41:41.790Z,96197.00
2022-09-22T10:47:52.713Z,96197.00
2022-09-22T10:54:05.832Z,96207.00
2022-09-22T11:00:02.825Z,96210.00
2022-09-22T11:05:57.022Z,96200.00
2022-09-22T11:12:05.923Z,96196.00
2022-09-22T11:18:06.184Z,96190.00
2022-09-22T11:24:01.344Z,96187.00
2022-09-22T11:30:11.356Z,96183.00
2022-09-22T11:35:56.817Z,96180.00
2022-09-22T11:41:29.544Z,96174.00
2022-09-22T11:47:29.595Z,96166.00
2022-09-22T11:53:37.580Z,96161.00
2022-09-22T11:59:40.479Z,96164.00
2022-09-22T12:05:31.420Z,96160.00
2022-09-22T12:11:00.107Z,96154.00
2022-09-22T12:16:41.984Z,96152.00
2022-09-22T12:22:33.079Z,96148.00
2022-09-22T12:28:01.054Z,96140.00
2022-09-22T12:33:29.626Z,96135.00
2022-09-22T12:39:09.193Z,96135.00
2022-09-22T12:44:49.505Z,96134.00
2022-09-22T12:50:23.582Z,96120.00
2022-09-22T12:55:56.704Z,96123.00
2022-09-22T13:01:32.828Z,96110.00
2022-09-22T13:07:01.266Z,96107.00
2022-09-22T13:12:29.011Z,96112.00
2022-09-22T13:17:57.185Z,96113.00
2022-09-22T13:23:26.319Z,96114.00
2022-09-22T13:29:01.197Z,96118.00
2022-09-22T13:34:34.854Z,96117.00
2022-09-22T13:40:02.887Z,96117.00
2022-09-22T13:45:30.951Z,96110.00
2022-09-22T13:51:15.196Z,96110.00
2022-09-22T13:56:43.087Z,96087.00
2022-09-22T14:02:13.299Z,96084.00
2022-09-22T14:08:01.029Z,96075.00
2022-09-22T14:13:54.569Z,96074.00
2022-09-22T14:19:44.272Z,96064.00
2022-09-22T14:25:23.128Z,96051.00
2022-09-22T14:30:52.285Z,96039.00
2022-09-22T14:36:25.803Z,96047.00
2022-09-22T14:41:59.219Z,96046.00
2022-09-22T14:47:30.319Z,96040.00
2022-09-22T14:53:22.933Z,96049.00
2022-09-22T14:58:54.316Z,96078.00
2022-09-22T15:04:26.567Z,96084.00
2022-09-22T15:09:58.563Z,96081.00
2022-09-22T15:15:31.509Z,96088.00
2022-09-22T15:21:11.574Z,96078.00
2022-09-22T15:26:41.870Z,96065.00
2022-09-22T15:32:10.081Z,96066.00
2022-09-22T15:37:39.121Z,96078.00
2022-09-22T15:43:13.607Z,96067.00
2022-09-22T15:48:41.885Z,96069.00
2022-09-22T15:54:21.853Z,96071.00
2022-09-22T15:59:50.398Z,96065.00
2022-09-22T16:05:18.536Z,96035.00
2022-09-22T16:10:46.344Z,96078.00
2022-09-22T16:16:14.823Z,96077.00
2022-09-22T16:21:56.921Z,96075.00
2022-09-22T16:27:25.082Z,96080.00
2022-09-22T16:32:54.080Z,96076.00
2022-09-22T16:38:21.987Z,96078.00
2022-09-22T16:43:49.828Z,96078.00
2022-09-22T16:49:20.096Z,96072.00
2022-09-22T16:54:48.116Z,96083.00
2022-09-22T17:00:16.897Z,96074.00
2022-09-22T17:05:46.834Z,96077.00
2022-09-22T17:11:15.142Z,96073.00
2022-09-22T17:16:56.608Z,96077.00
2022-09-22T17:22:24.531Z,96071.00
2022-09-22T17:27:52.647Z,96072.00
2022-09-22T17:33:21.771Z,96080.00
2022-09-22T17:38:58.544Z,96075.00
2022-09-22T17:44:28.820Z,96078.00
2022-09-22T17:50:19.928Z,96076.00
2022-09-22T17:55:47.738Z,96074.00
2022-09-22T18:01:15.830Z,96079.00
2022-09-22T18:06:43.792Z,96079.00
2022-09-22T18:12:15.126Z,96081.00
2022-09-22T18:17:43.876Z,96083.00
2022-09-22T18:23:12.555Z,96074.00
2022-09-22T18:28:40.748Z,96078.00
2022-09-22T18:34:08.853Z,96075.00
2022-09-22T18:39:39.028Z,96093.00
2022-09-22T18:45:07.623Z,96083.00
2022-09-22T18:50:35.905Z,96083.00
2022-09-22T18:56:17.645Z,96090.00
2022-09-22T19:01:46.354Z,96089.00
2022-09-22T19:07:49.259Z,96094.00
2022-09-22T19:13:17.919Z,96085.00
2022-09-22T19:18:45.661Z,96090.00
2022-09-22T19:24:16.236Z,96090.00
2022-09-22T19:29:44.802Z,96090.00
2022-09-22T19:35:13.973Z,96085.00
2022-09-22T19:40:41.677Z,96080.00
2022-09-22T19:46:09.732Z,96083.00
2022-09-22T19:51:39.077Z,96078.00
2022-09-22T19:57:07.031Z,96073.00
2022-09-22T20:02:35.547Z,96078.00
2022-09-22T20:08:21.561Z,96070.00
2022-09-22T20:14:07.708Z,96076.00
2022-09-22T20:19:41.264Z,96071.00
2022-09-22T20:25:29.193Z,96065.00
2022-09-22T20:30:57.033Z,96060.00
2022-09-22T20:36:28.105Z,96055.00
2022-09-22T20:41:56.191Z,96053.00
2022-09-22T20:47:25.721Z,96048.00
2022-09-22T20:52:55.511Z,96050.00
2022-09-22T20:58:23.826Z,96050.00
2022-09-22T21:03:52.177Z,96055.00
2022-09-22T21:09:39.349Z,96051.00
2022-09-22T21:15:07.343Z,96051.00
2022-09-22T21:20:35.111Z,96044.00
2022-09-22T21:26:07.169Z,96034.00
2022-09-22T21:31:35.033Z,96031.00
2022-09-22T21:37:04.173Z,96042.00
2022-09-22T21:42:33.088Z,96041.00
2022-09-22T21:48:01.369Z,96034.00
2022-09-22T21:53:30.814Z,96025.00
2022-09-22T21:58:59.214Z,96031.00
2022-09-22T22:04:30.321Z,96021.00
2022-09-22T22:10:01.035Z,96016.00
2022-09-22T22:15:28.921Z,96010.00
2022-09-22T22:21:03.221Z,96009.00
2022-09-22T22:26:38.088Z,96002.00
2022-09-22T22:32:09.294Z,95991.00
2022-09-22T22:37:38.524Z,95999.00
2022-09-22T22:43:06.260Z,95983.00
2022-09-22T22:48:35.718Z,95983.00
2022-09-22T22:54:04.961Z,95988.00
2022-09-22T22:59:32.739Z,95988.00
2022-09-22T23:05:01.318Z,95992.00
2022-09-22T23:10:31.282Z,95981.00
2022-09-22T23:16:09.440Z,95982.00
2022-09-22T23:21:37.716Z,95987.00
2022-09-22T23:27:05.696Z,95982.00
2022-09-22T23:32:33.608Z,95975.00
2022-09-22T23:38:01.751Z,95971.00
2022-09-22T23:43:31.533Z,95977.00
2022-09-22T23:49:00.450Z,95963.00
2022-09-22T23:54:28.285Z,95966.00
2022-09-22T23:59:56.108Z,95961.00
